sensor_id;sensor_type;location;lat;lon;timestamp;pressure;altitude;pressure_sealevel;temperature;humidity
64602;BME280;68371;42.630;23.192;2023-04-05T00:00:59;91777.06;;;-0.41;93.55
64602;BME280;68371;42.630;23.192;2023-04-05T00:03:26;91771.84;;;-0.54;94.89
64602;BME280;68371;42.630;23.192;2023-04-05T00:05:53;91779.00;;;-0.51;94.36
64602;BME280;68371;42.630;23.192;2023-04-05T00:08:20;91770.50;;;-0.52;94.45
64602;BME280;68371;42.630;23.192;2023-04-05T00:10:51;91772.94;;;-0.42;94.39
64602;BME280;68371;42.630;23.192;2023-04-05T00:13:18;91771.78;;;-0.35;94.49
64602;BME280;68371;42.630;23.192;2023-04-05T00:15:47;91767.38;;;-0.35;93.51
64602;BME280;68371;42.630;23.192;2023-04-05T00:18:16;91765.00;;;-0.31;93.96
64602;BME280;68371;42.630;23.192;2023-04-05T00:20:48;91773.53;;;-0.31;93.65
64602;BME280;68371;42.630;23.192;2023-04-05T00:23:15;91768.28;;;-0.26;93.17
64602;BME280;68371;42.630;23.192;2023-04-05T00:25:42;91776.25;;;-0.22;92.67
64602;BME280;68371;42.630;23.192;2023-04-05T00:28:09;91777.97;;;-0.17;92.05
64602;BME280;68371;42.630;23.192;2023-04-05T00:30:35;91770.28;;;-0.23;91.99
64602;BME280;68371;42.630;23.192;2023-04-05T00:33:02;91775.06;;;-0.30;92.26
64602;BME280;68371;42.630;23.192;2023-04-05T00:35:30;91776.59;;;-0.29;92.06
64602;BME280;68371;42.630;23.192;2023-04-05T00:37:57;91761.78;;;-0.23;91.35
64602;BME280;68371;42.630;23.192;2023-04-05T00:40:24;91773.28;;;-0.15;92.10
64602;BME280;68371;42.630;23.192;2023-04-05T00:42:51;91776.09;;;-0.31;92.44
64602;BME280;68371;42.630;23.192;2023-04-05T00:45:17;91772.31;;;-0.19;92.68
64602;BME280;68371;42.630;23.192;2023-04-05T00:47:44;91774.69;;;-0.23;92.59
64602;BME280;68371;42.630;23.192;2023-04-05T00:50:11;91774.13;;;-0.20;92.15
64602;BME280;68371;42.630;23.192;2023-04-05T00:52:40;91771.94;;;-0.13;91.41
64602;BME280;68371;42.630;23.192;2023-04-05T00:55:09;91782.69;;;-0.06;91.17
64602;BME280;68371;42.630;23.192;2023-04-05T00:57:37;91779.25;;;-0.01;91.16
64602;BME280;68371;42.630;23.192;2023-04-05T01:00:05;91775.38;;;-0.17;90.85
64602;BME280;68371;42.630;23.192;2023-04-05T01:02:37;91778.34;;;-0.24;91.51
64602;BME280;68371;42.630;23.192;2023-04-05T01:05:20;91778.94;;;-0.13;91.83
64602;BME280;68371;42.630;23.192;2023-04-05T01:07:58;91779.13;;;-0.10;91.61
64602;BME280;68371;42.630;23.192;2023-04-05T01:10:34;91779.78;;;-0.04;91.04
64602;BME280;68371;42.630;23.192;2023-04-05T01:13:04;91769.47;;;-0.04;90.91
64602;BME280;68371;42.630;23.192;2023-04-05T01:15:32;91785.78;;;0.10;90.28
64602;BME280;68371;42.630;23.192;2023-04-05T01:17:59;91787.50;;;0.15;89.73
64602;BME280;68371;42.630;23.192;2023-04-05T01:20:31;91787.06;;;-0.06;90.16
64602;BME280;68371;42.630;23.192;2023-04-05T01:23:27;91797.03;;;0.01;90.45
64602;BME280;68371;42.630;23.192;2023-04-05T01:29:26;91799.94;;;0.13;90.54
64602;BME280;68371;42.630;23.192;2023-04-05T01:32:01;91800.78;;;0.22;90.38
64602;BME280;68371;42.630;23.192;2023-04-05T01:34:35;91800.91;;;0.31;90.58
64602;BME280;68371;42.630;23.192;2023-04-05T01:37:07;91798.03;;;0.32;90.11
64602;BME280;68371;42.630;23.192;2023-04-05T01:39:34;91804.44;;;0.21;88.61
64602;BME280;68371;42.630;23.192;2023-04-05T01:42:02;91805.88;;;0.27;88.27
64602;BME280;68371;42.630;23.192;2023-04-05T01:44:30;91812.31;;;0.44;88.64
64602;BME280;68371;42.630;23.192;2023-04-05T01:46:57;91805.03;;;0.46;87.09
64602;BME280;68371;42.630;23.192;2023-04-05T01:49:24;91804.25;;;0.45;86.90
64602;BME280;68371;42.630;23.192;2023-04-05T01:51:51;91805.44;;;0.53;87.43
64602;BME280;68371;42.630;23.192;2023-04-05T01:54:17;91808.56;;;0.64;87.09
64602;BME280;68371;42.630;23.192;2023-04-05T01:56:44;91801.84;;;0.63;86.58
64602;BME280;68371;42.630;23.192;2023-04-05T01:59:11;91804.47;;;0.49;85.19
64602;BME280;68371;42.630;23.192;2023-04-05T02:01:39;91810.00;;;0.56;86.01
64602;BME280;68371;42.630;23.192;2023-04-05T02:04:06;91798.03;;;0.46;86.07
64602;BME280;68371;42.630;23.192;2023-04-05T02:06:33;91802.72;;;0.44;85.76
64602;BME280;68371;42.630;23.192;2023-04-05T02:08:59;91801.75;;;0.40;86.52
64602;BME280;68371;42.630;23.192;2023-04-05T02:11:26;91808.06;;;0.20;86.33
64602;BME280;68371;42.630;23.192;2023-04-05T02:13:52;91801.47;;;0.28;86.74
64602;BME280;68371;42.630;23.192;2023-04-05T02:16:19;91809.81;;;0.25;86.67
64602;BME280;68371;42.630;23.192;2023-04-05T02:18:47;91788.41;;;-0.09;87.03
64602;BME280;68371;42.630;23.192;2023-04-05T02:21:15;91811.22;;;0.17;87.29
64602;BME280;68371;42.630;23.192;2023-04-05T02:23:42;91805.13;;;0.27;86.84
64602;BME280;68371;42.630;23.192;2023-04-05T02:26:09;91807.13;;;0.30;85.84
64602;BME280;68371;42.630;23.192;2023-04-05T02:28:36;91809.69;;;0.30;86.39
64602;BME280;68371;42.630;23.192;2023-04-05T02:31:07;91810.38;;;0.35;86.64
64602;BME280;68371;42.630;23.192;2023-04-05T02:33:35;91811.25;;;0.45;86.95
64602;BME280;68371;42.630;23.192;2023-04-05T02:36:05;91789.81;;;0.44;86.90
64602;BME280;68371;42.630;23.192;2023-04-05T02:38:31;91805.97;;;0.50;86.85
64602;BME280;68371;42.630;23.192;2023-04-05T02:40:58;91813.34;;;0.56;86.40
64602;BME280;68371;42.630;23.192;2023-04-05T02:43:25;91801.00;;;0.53;85.61
64602;BME280;68371;42.630;23.192;2023-04-05T02:45:52;91802.72;;;0.44;86.15
64602;BME280;68371;42.630;23.192;2023-04-05T02:48:19;91807.53;;;0.51;86.37
64602;BME280;68371;42.630;23.192;2023-04-05T02:50:46;91802.63;;;0.49;84.84
64602;BME280;68371;42.630;23.192;2023-04-05T02:53:16;91804.75;;;0.47;86.87
64602;BME280;68371;42.630;23.192;2023-04-05T02:55:42;91806.44;;;0.24;85.42
64602;BME280;68371;42.630;23.192;2023-04-05T02:58:17;91807.09;;;0.16;86.97
64602;BME280;68371;42.630;23.192;2023-04-05T03:00:44;91802.03;;;0.11;87.17
64602;BME280;68371;42.630;23.192;2023-04-05T03:03:16;91810.25;;;0.13;87.20
64602;BME280;68371;42.630;23.192;2023-04-05T03:05:44;91797.91;;;0.10;85.85
64602;BME280;68371;42.630;23.192;2023-04-05T03:08:14;91792.53;;;-0.08;86.24
64602;BME280;68371;42.630;23.192;2023-04-05T03:10:44;91804.22;;;0.17;86.37
64602;BME280;68371;42.630;23.192;2023-04-05T03:13:12;91785.28;;;0.08;86.16
64602;BME280;68371;42.630;23.192;2023-04-05T03:15:39;91799.09;;;0.31;87.11
64602;BME280;68371;42.630;23.192;2023-04-05T03:18:06;91803.56;;;0.26;86.13
64602;BME280;68371;42.630;23.192;2023-04-05T03:20:33;91800.44;;;0.29;86.54
64602;BME280;68371;42.630;23.192;2023-04-05T03:23:04;91806.06;;;0.31;86.60
64602;BME280;68371;42.630;23.192;2023-04-05T03:25:34;91804.44;;;0.21;87.51
64602;BME280;68371;42.630;23.192;2023-04-05T03:28:02;91768.97;;;-0.06;87.61
64602;BME280;68371;42.630;23.192;2023-04-05T03:30:30;91804.81;;;0.14;88.36
64602;BME280;68371;42.630;23.192;2023-04-05T03:32:57;91803.84;;;0.24;89.18
64602;BME280;68371;42.630;23.192;2023-04-05T03:35:25;91801.94;;;0.16;89.30
64602;BME280;68371;42.630;23.192;2023-04-05T03:37:52;91809.13;;;0.19;89.68
64602;BME280;68371;42.630;23.192;2023-04-05T03:40:19;91806.25;;;0.34;90.54
64602;BME280;68371;42.630;23.192;2023-04-05T03:42:48;91810.47;;;0.30;90.81
64602;BME280;68371;42.630;23.192;2023-04-05T03:45:15;91807.47;;;0.09;89.13
64602;BME280;68371;42.630;23.192;2023-04-05T03:47:42;91807.84;;;0.03;90.54
64602;BME280;68371;42.630;23.192;2023-04-05T03:50:09;91813.78;;;0.03;90.69
64602;BME280;68371;42.630;23.192;2023-04-05T03:52:36;91791.47;;;-0.07;91.51
64602;BME280;68371;42.630;23.192;2023-04-05T03:55:03;91817.59;;;0.06;90.74
64602;BME280;68371;42.630;23.192;2023-04-05T03:57:30;91817.81;;;0.09;91.33
64602;BME280;68371;42.630;23.192;2023-04-05T03:59:58;91822.28;;;0.04;90.94
64602;BME280;68371;42.630;23.192;2023-04-05T04:02:25;91825.34;;;0.06;90.51
64602;BME280;68371;42.630;23.192;2023-04-05T04:04:51;91829.38;;;0.12;91.01
64602;BME280;68371;42.630;23.192;2023-04-05T04:07:19;91830.66;;;0.14;91.41
64602;BME280;68371;42.630;23.192;2023-04-05T04:09:45;91822.97;;;0.09;92.17
64602;BME280;68371;42.630;23.192;2023-04-05T04:12:12;91824.34;;;0.21;89.22
64602;BME280;68371;42.630;23.192;2023-04-05T04:14:38;91827.00;;;0.15;88.64
64602;BME280;68371;42.630;23.192;2023-04-05T04:17:06;91826.13;;;0.06;89.58
64602;BME280;68371;42.630;23.192;2023-04-05T04:19:33;91827.75;;;0.02;89.79
64602;BME280;68371;42.630;23.192;2023-04-05T04:22:00;91834.38;;;0.08;90.30
64602;BME280;68371;42.630;23.192;2023-04-05T04:24:26;91828.78;;;0.01;91.02
64602;BME280;68371;42.630;23.192;2023-04-05T04:26:56;91832.28;;;-0.09;90.70
64602;BME280;68371;42.630;23.192;2023-04-05T04:29:23;91834.44;;;0.03;88.32
64602;BME280;68371;42.630;23.192;2023-04-05T04:31:55;91839.44;;;0.13;89.88
64602;BME280;68371;42.630;23.192;2023-04-05T04:34:23;91835.69;;;0.06;89.07
64602;BME280;68371;42.630;23.192;2023-04-05T04:36:50;91828.31;;;-0.01;89.67
64602;BME280;68371;42.630;23.192;2023-04-05T04:39:25;91837.78;;;0.04;86.25
64602;BME280;68371;42.630;23.192;2023-04-05T04:41:52;91838.44;;;-0.05;86.55
64602;BME280;68371;42.630;23.192;2023-04-05T04:44:19;91845.84;;;-0.17;87.31
64602;BME280;68371;42.630;23.192;2023-04-05T04:46:52;91843.69;;;-0.10;86.63
64602;BME280;68371;42.630;23.192;2023-04-05T04:49:19;91843.44;;;0.06;86.41
64602;BME280;68371;42.630;23.192;2023-04-05T04:51:49;91846.31;;;0.18;84.04
64602;BME280;68371;42.630;23.192;2023-04-05T04:54:16;91838.88;;;0.16;85.14
64602;BME280;68371;42.630;23.192;2023-04-05T04:56:45;91842.69;;;0.19;84.45
64602;BME280;68371;42.630;23.192;2023-04-05T04:59:12;91777.38;;;-0.28;82.91
64602;BME280;68371;42.630;23.192;2023-04-05T05:01:38;91843.88;;;0.27;83.12
64602;BME280;68371;42.630;23.192;2023-04-05T05:04:05;91838.50;;;0.23;85.18
64602;BME280;68371;42.630;23.192;2023-04-05T05:06:32;91840.69;;;0.16;85.02
64602;BME280;68371;42.630;23.192;2023-04-05T05:09:00;91845.97;;;0.25;83.50
64602;BME280;68371;42.630;23.192;2023-04-05T05:11:27;91847.00;;;0.24;83.12
64602;BME280;68371;42.630;23.192;2023-04-05T05:13:54;91842.16;;;0.36;82.43
64602;BME280;68371;42.630;23.192;2023-04-05T05:16:22;91843.78;;;0.46;83.47
64602;BME280;68371;42.630;23.192;2023-04-05T05:18:49;91852.81;;;0.62;82.94
64602;BME280;68371;42.630;23.192;2023-04-05T05:21:17;91854.53;;;0.53;81.98
64602;BME280;68371;42.630;23.192;2023-04-05T05:23:43;91852.13;;;0.56;82.85
64602;BME280;68371;42.630;23.192;2023-04-05T05:26:12;91856.44;;;0.61;82.48
64602;BME280;68371;42.630;23.192;2023-04-05T05:28:39;91855.97;;;0.45;82.58
64602;BME280;68371;42.630;23.192;2023-04-05T05:31:06;91856.69;;;0.32;82.09
64602;BME280;68371;42.630;23.192;2023-04-05T05:33:33;91862.41;;;0.15;83.46
64602;BME280;68371;42.630;23.192;2023-04-05T05:35:59;91858.28;;;0.14;82.82
64602;BME280;68371;42.630;23.192;2023-04-05T05:38:28;91863.91;;;0.16;81.99
64602;BME280;68371;42.630;23.192;2023-04-05T05:40:55;91828.56;;;-0.03;82.09
64602;BME280;68371;42.630;23.192;2023-04-05T05:43:23;91861.16;;;0.26;82.72
64602;BME280;68371;42.630;23.192;2023-04-05T05:45:50;91862.81;;;0.36;82.08
64602;BME280;68371;42.630;23.192;2023-04-05T05:48:17;91865.50;;;0.31;82.37
64602;BME280;68371;42.630;23.192;2023-04-05T05:50:43;91854.47;;;0.25;82.70
64602;BME280;68371;42.630;23.192;2023-04-05T05:53:13;91859.78;;;0.48;81.97
64602;BME280;68371;42.630;23.192;2023-04-05T05:55:41;91860.53;;;0.48;80.68
64602;BME280;68371;42.630;23.192;2023-04-05T05:58:08;91863.31;;;0.38;81.60
64602;BME280;68371;42.630;23.192;2023-04-05T06:00:36;91843.69;;;0.37;82.47
64602;BME280;68371;42.630;23.192;2023-04-05T06:03:03;91866.13;;;0.55;81.92
64602;BME280;68371;42.630;23.192;2023-04-05T06:05:30;91863.34;;;0.66;81.42
64602;BME280;68371;42.630;23.192;2023-04-05T06:07:57;91865.75;;;0.76;80.14
64602;BME280;68371;42.630;23.192;2023-04-05T06:10:24;91866.59;;;0.85;79.89
64602;BME280;68371;42.630;23.192;2023-04-05T06:12:51;91867.19;;;0.82;79.48
64602;BME280;68371;42.630;23.192;2023-04-05T06:15:18;91861.44;;;0.71;80.70
64602;BME280;68371;42.630;23.192;2023-04-05T06:17:46;91869.84;;;0.77;81.61
64602;BME280;68371;42.630;23.192;2023-04-05T06:20:12;91868.13;;;0.86;78.37
64602;BME280;68371;42.630;23.192;2023-04-05T06:22:39;91872.25;;;1.01;79.96
64602;BME280;68371;42.630;23.192;2023-04-05T06:25:08;91873.22;;;0.77;79.29
64602;BME280;68371;42.630;23.192;2023-04-05T06:27:36;91873.22;;;0.91;80.23
64602;BME280;68371;42.630;23.192;2023-04-05T06:30:03;91872.25;;;0.87;81.24
64602;BME280;68371;42.630;23.192;2023-04-05T06:32:30;91883.94;;;0.85;80.11
64602;BME280;68371;42.630;23.192;2023-04-05T06:34:59;91883.72;;;0.81;79.78
64602;BME280;68371;42.630;23.192;2023-04-05T06:37:26;91887.28;;;0.99;80.38
64602;BME280;68371;42.630;23.192;2023-04-05T06:39:52;91895.91;;;0.94;79.93
64602;BME280;68371;42.630;23.192;2023-04-05T06:42:19;91889.38;;;0.97;78.98
64602;BME280;68371;42.630;23.192;2023-04-05T06:44:46;91898.50;;;0.94;78.15
64602;BME280;68371;42.630;23.192;2023-04-05T06:47:12;91894.28;;;0.85;79.71
64602;BME280;68371;42.630;23.192;2023-04-05T06:49:39;91894.28;;;0.98;80.02
64602;BME280;68371;42.630;23.192;2023-04-05T06:52:07;91903.94;;;0.93;77.26
64602;BME280;68371;42.630;23.192;2023-04-05T06:54:36;91903.59;;;0.86;78.31
64602;BME280;68371;42.630;23.192;2023-04-05T06:57:03;91909.09;;;0.79;78.27
64602;BME280;68371;42.630;23.192;2023-04-05T06:59:30;91906.63;;;0.74;76.75
64602;BME280;68371;42.630;23.192;2023-04-05T07:01:56;91910.47;;;0.76;79.08
64602;BME280;68371;42.630;23.192;2023-04-05T07:04:23;91917.69;;;0.93;78.46
64602;BME280;68371;42.630;23.192;2023-04-05T07:06:51;91918.81;;;1.01;79.12
64602;BME280;68371;42.630;23.192;2023-04-05T07:09:19;91922.44;;;0.86;77.46
64602;BME280;68371;42.630;23.192;2023-04-05T07:11:48;91917.19;;;0.91;78.28
64602;BME280;68371;42.630;23.192;2023-04-05T07:14:15;91926.75;;;0.91;78.30
64602;BME280;68371;42.630;23.192;2023-04-05T07:16:41;91925.41;;;1.07;79.81
64602;BME280;68371;42.630;23.192;2023-04-05T07:19:08;91930.13;;;0.91;78.86
64602;BME280;68371;42.630;23.192;2023-04-05T07:21:35;91934.31;;;1.01;76.04
64602;BME280;68371;42.630;23.192;2023-04-05T07:24:01;91924.94;;;1.19;76.91
64602;BME280;68371;42.630;23.192;2023-04-05T07:26:29;91933.25;;;1.30;77.44
64602;BME280;68371;42.630;23.192;2023-04-05T07:28:59;91923.97;;;1.01;77.46
64602;BME280;68371;42.630;23.192;2023-04-05T07:31:26;91942.09;;;1.01;74.88
64602;BME280;68371;42.630;23.192;2023-04-05T07:33:53;91946.47;;;0.87;76.13
64602;BME280;68371;42.630;23.192;2023-04-05T07:36:20;91946.84;;;0.80;75.93
64602;BME280;68371;42.630;23.192;2023-04-05T07:38:46;91943.88;;;0.59;74.81
64602;BME280;68371;42.630;23.192;2023-04-05T07:41:13;91942.53;;;0.62;77.53
64602;BME280;68371;42.630;23.192;2023-04-05T07:43:42;91942.59;;;0.56;77.40
64602;BME280;68371;42.630;23.192;2023-04-05T07:46:09;91944.56;;;0.78;78.21
64602;BME280;68371;42.630;23.192;2023-04-05T07:48:35;91952.63;;;0.91;76.99
64602;BME280;68371;42.630;23.192;2023-04-05T07:51:03;91958.25;;;0.93;76.54
64602;BME280;68371;42.630;23.192;2023-04-05T07:53:31;91957.75;;;0.77;75.36
64602;BME280;68371;42.630;23.192;2023-04-05T07:56:01;91960.84;;;0.93;76.28
64602;BME280;68371;42.630;23.192;2023-04-05T07:58:29;91953.75;;;0.85;76.74
64602;BME280;68371;42.630;23.192;2023-04-05T08:00:59;91964.13;;;0.98;74.57
64602;BME280;68371;42.630;23.192;2023-04-05T08:03:27;91970.47;;;1.06;76.52
64602;BME280;68371;42.630;23.192;2023-04-05T08:05:53;91968.16;;;1.05;77.71
64602;BME280;68371;42.630;23.192;2023-04-05T08:08:20;91969.50;;;1.02;74.92
64602;BME280;68371;42.630;23.192;2023-04-05T08:10:47;91975.63;;;1.06;75.16
64602;BME280;68371;42.630;23.192;2023-04-05T08:13:14;91970.94;;;1.08;77.05
64602;BME280;68371;42.630;23.192;2023-04-05T08:15:41;91977.50;;;0.87;76.73
64602;BME280;68371;42.630;23.192;2023-04-05T08:18:09;91985.72;;;0.75;76.01
64602;BME280;68371;42.630;23.192;2023-04-05T08:20:37;91978.16;;;0.78;76.26
64602;BME280;68371;42.630;23.192;2023-04-05T08:23:04;91979.13;;;0.83;76.51
64602;BME280;68371;42.630;23.192;2023-04-05T08:25:32;91982.97;;;0.71;75.30
64602;BME280;68371;42.630;23.192;2023-04-05T08:27:58;91984.50;;;0.86;76.31
64602;BME280;68371;42.630;23.192;2023-04-05T08:30:25;91984.44;;;0.91;77.35
64602;BME280;68371;42.630;23.192;2023-04-05T08:32:52;91996.88;;;0.89;76.76
64602;BME280;68371;42.630;23.192;2023-04-05T08:35:20;91985.09;;;0.97;78.43
64602;BME280;68371;42.630;23.192;2023-04-05T08:37:47;91987.69;;;0.97;78.96
64602;BME280;68371;42.630;23.192;2023-04-05T08:40:14;91994.13;;;0.99;78.09
64602;BME280;68371;42.630;23.192;2023-04-05T08:42:41;91998.53;;;0.66;76.08
64602;BME280;68371;42.630;23.192;2023-04-05T08:45:13;91984.78;;;0.85;77.61
64602;BME280;68371;42.630;23.192;2023-04-05T08:47:41;91983.94;;;1.03;79.83
64602;BME280;68371;42.630;23.192;2023-04-05T08:50:09;91990.88;;;1.22;80.05
64602;BME280;68371;42.630;23.192;2023-04-05T08:52:40;91990.56;;;1.09;77.31
64602;BME280;68371;42.630;23.192;2023-04-05T08:55:08;91988.94;;;1.13;75.95
64602;BME280;68371;42.630;23.192;2023-04-05T08:57:36;91990.78;;;1.27;75.26
64602;BME280;68371;42.630;23.192;2023-04-05T09:00:09;91993.47;;;1.35;75.73
64602;BME280;68371;42.630;23.192;2023-04-05T09:02:36;91995.88;;;1.46;78.28
64602;BME280;68371;42.630;23.192;2023-04-05T09:05:08;91991.63;;;1.64;78.63
64602;BME280;68371;42.630;23.192;2023-04-05T09:07:35;91991.25;;;1.70;77.77
64602;BME280;68371;42.630;23.192;2023-04-05T09:10:06;91974.19;;;1.69;78.54
64602;BME280;68371;42.630;23.192;2023-04-05T09:12:34;91975.31;;;1.77;76.39
64602;BME280;68371;42.630;23.192;2023-04-05T09:15:02;91914.50;;;1.38;75.62
64602;BME280;68371;42.630;23.192;2023-04-05T09:17:29;91967.66;;;1.72;75.36
64602;BME280;68371;42.630;23.192;2023-04-05T09:19:57;91996.59;;;1.88;77.11
64602;BME280;68371;42.630;23.192;2023-04-05T09:22:24;91999.88;;;1.79;76.34
64602;BME280;68371;42.630;23.192;2023-04-05T09:24:50;91997.19;;;1.85;72.89
64602;BME280;68371;42.630;23.192;2023-04-05T09:27:19;91997.34;;;2.02;76.16
64602;BME280;68371;42.630;23.192;2023-04-05T09:29:47;91998.00;;;2.08;74.09
64602;BME280;68371;42.630;23.192;2023-04-05T09:32:15;91989.16;;;2.09;74.76
64602;BME280;68371;42.630;23.192;2023-04-05T09:34:43;91983.59;;;2.15;76.47
64602;BME280;68371;42.630;23.192;2023-04-05T09:37:14;91992.50;;;2.23;74.65
64602;BME280;68371;42.630;23.192;2023-04-05T09:39:42;91844.22;;;1.31;71.77
64602;BME280;68371;42.630;23.192;2023-04-05T09:42:09;91960.66;;;2.09;71.47
64602;BME280;68371;42.630;23.192;2023-04-05T09:44:55;91991.16;;;2.26;69.56
64602;BME280;68371;42.630;23.192;2023-04-05T09:47:23;91989.00;;;2.05;70.12
64602;BME280;68371;42.630;23.192;2023-04-05T09:49:52;91989.16;;;2.09;70.03
64602;BME280;68371;42.630;23.192;2023-04-05T09:52:20;91971.59;;;2.19;70.68
64602;BME280;68371;42.630;23.192;2023-04-05T09:54:48;91982.47;;;2.30;71.90
64602;BME280;68371;42.630;23.192;2023-04-05T09:57:16;91984.66;;;2.37;70.71
64602;BME280;68371;42.630;23.192;2023-04-05T09:59:44;91982.06;;;2.59;70.56
64602;BME280;68371;42.630;23.192;2023-04-05T10:02:13;91983.91;;;2.59;70.74
64602;BME280;68371;42.630;23.192;2023-04-05T10:04:42;91974.72;;;2.53;69.51
64602;BME280;68371;42.630;23.192;2023-04-05T10:07:11;91978.84;;;2.54;68.52
64602;BME280;68371;42.630;23.192;2023-04-05T10:09:38;91976.66;;;2.70;69.95
64602;BME280;68371;42.630;23.192;2023-04-05T10:12:06;91976.16;;;2.90;69.41
64602;BME280;68371;42.630;23.192;2023-04-05T10:14:33;91980.19;;;3.05;69.24
64602;BME280;68371;42.630;23.192;2023-04-05T10:17:09;91979.09;;;2.97;68.99
64602;BME280;68371;42.630;23.192;2023-04-05T10:19:49;91979.47;;;3.13;70.35
64602;BME280;68371;42.630;23.192;2023-04-05T10:22:22;91978.91;;;2.94;67.70
64602;BME280;68371;42.630;23.192;2023-04-05T10:24:53;91972.09;;;2.75;68.10
64602;BME280;68371;42.630;23.192;2023-04-05T10:27:29;91985.50;;;3.00;67.20
64602;BME280;68371;42.630;23.192;2023-04-05T10:30:03;91987.59;;;2.89;68.95
64602;BME280;68371;42.630;23.192;2023-04-05T10:32:39;91986.91;;;2.75;67.11
64602;BME280;68371;42.630;23.192;2023-04-05T10:35:14;91988.13;;;2.77;67.65
64602;BME280;68371;42.630;23.192;2023-04-05T10:37:52;91979.16;;;2.84;67.70
64602;BME280;68371;42.630;23.192;2023-04-05T10:40:20;91983.91;;;2.59;68.33
64602;BME280;68371;42.630;23.192;2023-04-05T10:42:47;91986.25;;;2.47;68.02
64602;BME280;68371;42.630;23.192;2023-04-05T10:45:17;91982.25;;;2.63;70.12
64602;BME280;68371;42.630;23.192;2023-04-05T10:47:49;91986.84;;;2.66;70.51
64602;BME280;68371;42.630;23.192;2023-04-05T10:50:21;91990.69;;;2.69;69.82
64602;BME280;68371;42.630;23.192;2023-04-05T10:52:49;91986.03;;;2.57;69.80
64602;BME280;68371;42.630;23.192;2023-04-05T10:55:16;91988.38;;;2.67;69.55
64602;BME280;68371;42.630;23.192;2023-04-05T10:57:44;91992.50;;;2.68;68.48
64602;BME280;68371;42.630;23.192;2023-04-05T11:00:12;91988.66;;;2.43;68.34
64602;BME280;68371;42.630;23.192;2023-04-05T11:02:40;91996.03;;;2.27;67.76
64602;BME280;68371;42.630;23.192;2023-04-05T11:05:29;91994.28;;;2.36;68.88
64602;BME280;68371;42.630;23.192;2023-04-05T11:08:02;91963.34;;;2.40;67.56
64602;BME280;68371;42.630;23.192;2023-04-05T11:10:29;91998.03;;;2.53;68.78
64602;BME280;68371;42.630;23.192;2023-04-05T11:13:05;91996.16;;;2.45;67.41
64602;BME280;68371;42.630;23.192;2023-04-05T11:15:34;91997.94;;;2.58;66.14
64602;BME280;68371;42.630;23.192;2023-04-05T11:18:07;91996.34;;;2.71;66.87
64602;BME280;68371;42.630;23.192;2023-04-05T11:20:45;91994.00;;;2.60;67.81
64602;BME280;68371;42.630;23.192;2023-04-05T11:23:13;91993.41;;;2.64;66.93
64602;BME280;68371;42.630;23.192;2023-04-05T11:25:45;91986.91;;;2.75;68.42
64602;BME280;68371;42.630;23.192;2023-04-05T11:28:28;91996.31;;;2.93;68.39
64602;BME280;68371;42.630;23.192;2023-04-05T11:30:55;91982.28;;;2.94;67.40
64602;BME280;68371;42.630;23.192;2023-04-05T11:33:53;91987.88;;;3.10;69.48
64602;BME280;68371;42.630;23.192;2023-04-05T11:36:37;91931.25;;;2.81;66.95
64602;BME280;68371;42.630;23.192;2023-04-05T11:39:25;91997.53;;;3.18;67.67
64602;BME280;68371;42.630;23.192;2023-04-05T11:41:54;92000.72;;;3.15;66.70
64602;BME280;68371;42.630;23.192;2023-04-05T11:44:22;91998.25;;;3.10;67.21
64602;BME280;68371;42.630;23.192;2023-04-05T11:46:49;91991.78;;;2.99;66.70
64602;BME280;68371;42.630;23.192;2023-04-05T11:49:16;91998.81;;;2.98;69.90
64602;BME280;68371;42.630;23.192;2023-04-05T11:51:44;91996.34;;;3.02;70.08
64602;BME280;68371;42.630;23.192;2023-04-05T11:54:13;91994.66;;;2.97;69.26
64602;BME280;68371;42.630;23.192;2023-04-05T11:56:40;91996.47;;;2.88;66.82
64602;BME280;68371;42.630;23.192;2023-04-05T11:59:12;91996.50;;;2.97;66.45
64602;BME280;68371;42.630;23.192;2023-04-05T12:01:42;91994.84;;;3.01;67.17
64602;BME280;68371;42.630;23.192;2023-04-05T12:04:13;91999.41;;;3.04;66.80
64602;BME280;68371;42.630;23.192;2023-04-05T12:06:39;91990.91;;;2.81;67.91
64602;BME280;68371;42.630;23.192;2023-04-05T12:09:08;91988.25;;;2.95;67.00
64602;BME280;68371;42.630;23.192;2023-04-05T12:11:35;91986.84;;;2.89;66.37
64602;BME280;68371;42.630;23.192;2023-04-05T12:14:05;91990.84;;;2.95;69.45
64602;BME280;68371;42.630;23.192;2023-04-05T12:16:32;91989.03;;;3.04;69.14
64602;BME280;68371;42.630;23.192;2023-04-05T12:18:59;91990.47;;;3.10;67.33
64602;BME280;68371;42.630;23.192;2023-04-05T12:21:26;91979.31;;;3.10;68.31
64602;BME280;68371;42.630;23.192;2023-04-05T12:23:53;91995.94;;;3.09;69.71
64602;BME280;68371;42.630;23.192;2023-04-05T12:26:22;91998.41;;;3.14;69.64
64602;BME280;68371;42.630;23.192;2023-04-05T12:28:51;91997.00;;;3.08;68.17
64602;BME280;68371;42.630;23.192;2023-04-05T12:31:36;92001.16;;;3.09;68.70
64602;BME280;68371;42.630;23.192;2023-04-05T12:34:03;91988.56;;;3.25;68.71
64602;BME280;68371;42.630;23.192;2023-04-05T12:36:30;91992.38;;;3.27;67.83
64602;BME280;68371;42.630;23.192;2023-04-05T12:38:57;91986.00;;;3.42;67.71
64602;BME280;68371;42.630;23.192;2023-04-05T12:41:27;91988.94;;;3.49;67.56
64602;BME280;68371;42.630;23.192;2023-04-05T12:43:54;91992.31;;;3.58;67.90
64602;BME280;68371;42.630;23.192;2023-04-05T12:46:37;91989.91;;;3.71;66.17
64602;BME280;68371;42.630;23.192;2023-04-05T12:49:04;91982.00;;;3.76;66.76
64602;BME280;68371;42.630;23.192;2023-04-05T12:51:31;91999.25;;;3.72;65.42
64602;BME280;68371;42.630;23.192;2023-04-05T12:54:00;91993.59;;;3.78;65.38
64602;BME280;68371;42.630;23.192;2023-04-05T12:56:28;91991.63;;;3.75;65.47
64602;BME280;68371;42.630;23.192;2023-04-05T12:58:55;92000.31;;;3.71;66.95
64602;BME280;68371;42.630;23.192;2023-04-05T13:01:22;91992.38;;;3.76;65.74
64602;BME280;68371;42.630;23.192;2023-04-05T13:03:49;91996.53;;;3.86;65.30
64602;BME280;68371;42.630;23.192;2023-04-05T13:06:16;92006.50;;;4.01;65.63
64602;BME280;68371;42.630;23.192;2023-04-05T13:08:43;92004.50;;;3.98;68.33
64602;BME280;68371;42.630;23.192;2023-04-05T13:11:10;92006.16;;;3.85;68.12